Terminal Aerodrome Forecast
Issued by NWS Boston, MA

Home | Current Version | Previous Version | Text Only | Print | Product List | Glossary On
Versions: 1 2 3 4 5 6 7 8 9 10 11 12 13 14 15 16 17 18 19 20 21 22 23 24 25 26 27 28 29 30 31 32 33 34 35 36 37 38 39 40 41 42 43 44 45 46 47 48
000
FTUS41 KBOX 041732
TAFBOS
TAF
KBOS 041732Z 0418/0524 20013KT P6SM VCTS BKN060CB
      TEMPO 0419/0423 28015G25KT 5SM TSRA BKN040CB
     FM042300 24010G20KT P6SM VCTS BKN050CB
     FM050200 25007KT P6SM BKN070
     FM050400 26006KT P6SM SCT080
     FM051600 24006KT P6SM VCSH SCT250=

USA.gov is the U.S. government's official web portal to all federal, state and local government web resources and services.